createdAt,value
2022-11-14T00:01:29.187Z,54.72
2022-11-14T00:04:30.684Z,63.58
2022-11-14T00:07:37.205Z,63.13
2022-11-14T00:10:38.422Z,66.50
2022-11-14T00:13:45.216Z,58.40
2022-11-14T00:16:59.116Z,58.00
2022-11-14T00:20:07.277Z,55.20
2022-11-14T00:23:14.275Z,57.67
2022-11-14T00:26:15.630Z,54.33
2022-11-14T00:29:23.195Z,53.47
2022-11-14T00:32:24.682Z,55.42
2022-11-14T00:35:31.240Z,49.75
2022-11-14T00:38:32.644Z,55.13
2022-11-14T00:41:39.175Z,48.95
2022-11-14T00:44:40.463Z,40.58
2022-11-14T00:47:47.250Z,42.15
2022-11-14T00:50:48.448Z,34.28
2022-11-14T00:53:55.189Z,26.88
2022-11-14T00:57:02.167Z,32.10
2022-11-14T01:00:02.724Z,24.35
2022-11-14T01:03:09.189Z,25.77
2022-11-14T01:06:16.905Z,22.30
2022-11-14T01:09:25.271Z,16.95
2022-11-14T01:12:25.565Z,24.33
2022-11-14T01:15:33.169Z,17.75
2022-11-14T01:18:41.594Z,21.02
2022-11-14T01:21:42.178Z,26.77
2022-11-14T01:24:43.461Z,31.05
2022-11-14T01:27:50.283Z,32.80
2022-11-14T01:30:58.282Z,34.53
2022-11-14T01:34:00.524Z,31.63
2022-11-14T01:37:08.205Z,31.88
2022-11-14T01:40:09.020Z,24.83
2022-11-14T01:43:25.203Z,26.10
2022-11-14T01:46:45.543Z,29.67
2022-11-14T01:49:56.269Z,29.70
2022-11-14T01:53:03.279Z,23.13
2022-11-14T01:56:14.281Z,22.02
2022-11-14T01:59:28.182Z,24.80
2022-11-14T02:02:36.214Z,19.95
2022-11-14T02:05:37.549Z,15.88
2022-11-14T02:08:39.191Z,15.25
2022-11-14T02:11:51.311Z,19.10
2022-11-14T02:14:54.567Z,13.73
2022-11-14T02:18:01.180Z,14.32
2022-11-14T02:21:01.549Z,13.85
2022-11-14T02:24:08.297Z,20.27
2022-11-14T02:27:10.824Z,22.90
2022-11-14T02:30:21.253Z,22.15
2022-11-14T02:33:30.259Z,17.08
2022-11-14T02:36:38.278Z,16.33
2022-11-14T02:39:38.594Z,17.15
2022-11-14T02:42:46.251Z,17.77
2022-11-14T02:45:46.576Z,18.20
2022-11-14T02:48:54.272Z,20.25
2022-11-14T02:51:54.612Z,18.67
2022-11-14T02:55:01.263Z,21.05
2022-11-14T02:58:01.554Z,17.35
2022-11-14T03:01:20.410Z,18.75
2022-11-14T03:04:28.245Z,28.27
2022-11-14T03:07:28.516Z,18.63
2022-11-14T03:10:37.228Z,15.15
2022-11-14T03:13:37.964Z,17.80
2022-11-14T03:16:46.241Z,13.93
2022-11-14T03:19:46.382Z,18.25
2022-11-14T03:22:54.181Z,13.15
2022-11-14T03:26:02.255Z,15.80
2022-11-14T03:29:09.249Z,16.88
2022-11-14T03:32:16.215Z,12.07
2022-11-14T03:35:17.514Z,14.43
2022-11-14T03:38:26.343Z,14.38
2022-11-14T03:41:26.548Z,21.48
2022-11-14T03:44:34.181Z,14.95
2022-11-14T03:47:41.340Z,21.63
2022-11-14T03:50:43.882Z,15.18
2022-11-14T03:53:51.192Z,15.63
2022-11-14T03:56:52.415Z,14.10
2022-11-14T03:59:59.173Z,15.95
2022-11-14T04:03:00.478Z,20.58
2022-11-14T04:06:07.267Z,18.02
2022-11-14T04:09:07.757Z,19.23
2022-11-14T04:12:15.895Z,19.13
2022-11-14T04:15:17.179Z,25.98
2022-11-14T04:18:25.152Z,21.98
2022-11-14T04:21:32.252Z,19.08
2022-11-14T04:24:40.263Z,23.58
2022-11-14T04:27:40.504Z,19.25
2022-11-14T04:30:47.234Z,22.83
2022-11-14T04:33:54.270Z,20.13
2022-11-14T04:36:54.492Z,21.63
2022-11-14T04:40:06.165Z,26.45
2022-11-14T04:43:06.712Z,17.73
2022-11-14T04:46:13.510Z,27.10
2022-11-14T04:49:13.792Z,24.88
2022-11-14T04:52:21.246Z,20.55
2022-11-14T04:55:28.163Z,28.05
2022-11-14T04:58:29.800Z,24.27
2022-11-14T05:01:38.266Z,29.10
2022-11-14T05:04:39.569Z,20.83
2022-11-14T05:07:46.246Z,26.90
2022-11-14T05:10:47.863Z,25.75
2022-11-14T05:13:55.254Z,26.45
2022-11-14T05:17:08.071Z,31.52
2022-11-14T05:20:15.304Z,32.70
2022-11-14T05:23:19.525Z,29.02
2022-11-14T05:26:27.169Z,27.65
2022-11-14T05:29:34.155Z,32.70
2022-11-14T05:32:35.493Z,34.20
2022-11-14T05:35:43.202Z,33.63
2022-11-14T05:38:52.188Z,29.92
2022-11-14T05:41:59.169Z,31.92
2022-11-14T05:44:59.465Z,28.20
2022-11-14T05:48:07.209Z,25.10
2022-11-14T05:51:08.891Z,25.08
2022-11-14T05:54:16.144Z,19.83
2022-11-14T05:57:23.260Z,18.75
2022-11-14T06:00:26.674Z,19.42
2022-11-14T06:03:33.149Z,17.25
2022-11-14T06:06:33.513Z,18.10
2022-11-14T06:09:40.129Z,20.58
2022-11-14T06:12:40.581Z,15.55
2022-11-14T06:15:47.243Z,19.45
2022-11-14T06:18:48.498Z,17.52
2022-11-14T06:21:56.123Z,13.43
2022-11-14T06:25:03.217Z,13.38
2022-11-14T06:28:11.201Z,17.95
2022-11-14T06:31:12.511Z,19.50
2022-11-14T06:34:21.140Z,24.08
2022-11-14T06:37:32.539Z,16.88
2022-11-14T06:40:33.428Z,22.75
2022-11-14T06:43:40.135Z,17.05
2022-11-14T06:46:40.451Z,21.65
2022-11-14T06:49:47.176Z,14.75
2022-11-14T06:52:48.372Z,18.27
2022-11-14T06:55:49.155Z,15.35
2022-11-14T06:59:02.221Z,12.90
2022-11-14T07:02:02.484Z,13.52
2022-11-14T07:05:10.128Z,12.75
2022-11-14T07:08:10.609Z,15.10
2022-11-14T07:11:19.128Z,11.05
2022-11-14T07:14:19.379Z,10.13
2022-11-14T07:17:30.748Z,7.93
2022-11-14T07:20:32.424Z,9.25
2022-11-14T07:23:40.221Z,9.23
2022-11-14T07:26:48.202Z,7.28
2022-11-14T07:29:55.167Z,8.23
2022-11-14T07:33:06.211Z,9.73
2022-11-14T07:36:13.141Z,8.07
2022-11-14T07:39:20.207Z,10.63
2022-11-14T07:42:27.121Z,8.35
2022-11-14T07:45:35.125Z,6.45
2022-11-14T07:48:37.545Z,7.20
2022-11-14T07:51:45.129Z,9.73
2022-11-14T07:54:52.215Z,7.47
2022-11-14T07:57:55.576Z,7.97
2022-11-14T08:01:02.346Z,5.68
2022-11-14T08:04:10.117Z,10.68
2022-11-14T08:07:17.267Z,8.35
2022-11-14T08:10:19.185Z,8.10
2022-11-14T08:13:32.017Z,10.52
2022-11-14T08:16:33.467Z,7.53
2022-11-14T08:19:41.124Z,5.20
2022-11-14T08:22:41.371Z,12.35
2022-11-14T08:25:48.095Z,10.63
2022-11-14T08:28:56.219Z,9.75
2022-11-14T08:32:00.082Z,11.23
2022-11-14T08:35:07.125Z,6.57
2022-11-14T08:38:09.516Z,5.30
2022-11-14T08:41:16.122Z,6.57
2022-11-14T08:44:17.629Z,6.75
2022-11-14T08:47:24.219Z,5.40
2022-11-14T08:50:24.560Z,8.15
2022-11-14T08:53:31.126Z,6.88
2022-11-14T08:56:38.212Z,5.60
2022-11-14T08:59:45.121Z,9.20
2022-11-14T09:02:53.150Z,7.88
2022-11-14T09:05:55.137Z,10.02
2022-11-14T09:09:02.217Z,7.82
2022-11-14T09:12:03.395Z,7.35
2022-11-14T09:15:10.117Z,8.73
2022-11-14T09:18:25.185Z,9.05
2022-11-14T09:21:32.100Z,11.95
2022-11-14T09:24:32.586Z,10.23
2022-11-14T09:27:40.103Z,11.25
2022-11-14T09:30:49.185Z,7.57
2022-11-14T09:33:57.212Z,9.18
2022-11-14T09:36:57.478Z,8.75
2022-11-14T09:40:04.212Z,13.35
2022-11-14T09:43:38.102Z,9.23
2022-11-14T09:46:46.116Z,10.18
2022-11-14T09:49:59.198Z,10.77
2022-11-14T09:53:11.117Z,18.38
2022-11-14T09:56:18.092Z,12.38
2022-11-14T09:59:18.675Z,12.73
2022-11-14T10:02:28.245Z,9.20
2022-11-14T10:05:51.820Z,9.95
2022-11-14T10:09:19.211Z,10.85
2022-11-14T10:12:54.105Z,8.38
2022-11-14T10:19:27.663Z,11.70
2022-11-14T10:23:01.598Z,10.35
2022-11-14T10:26:13.930Z,9.35
2022-11-14T10:29:56.116Z,13.02
2022-11-14T10:33:22.217Z,11.25
2022-11-14T10:36:37.177Z,13.05
2022-11-14T10:39:55.119Z,12.95
2022-11-14T10:43:10.101Z,13.98
2022-11-14T10:46:26.075Z,11.40
2022-11-14T10:49:51.103Z,13.93
2022-11-14T10:53:05.100Z,10.55
2022-11-14T10:56:06.512Z,10.50
2022-11-14T10:59:14.098Z,11.38
2022-11-14T11:02:14.522Z,13.20
2022-11-14T11:05:25.182Z,9.88
2022-11-14T11:08:48.961Z,11.93
2022-11-14T11:12:06.134Z,9.10
2022-11-14T11:15:21.452Z,8.77
2022-11-14T11:18:35.353Z,9.73
2022-11-14T11:21:53.517Z,10.05
2022-11-14T11:25:00.103Z,7.75
2022-11-14T11:28:27.113Z,11.05
2022-11-14T11:31:27.377Z,10.75
2022-11-14T11:34:42.207Z,10.73
2022-11-14T11:38:19.097Z,12.15
2022-11-14T11:42:07.679Z,11.13
2022-11-14T11:45:13.179Z,9.85
2022-11-14T11:48:37.258Z,13.80
2022-11-14T11:51:42.193Z,17.20
2022-11-14T11:55:31.551Z,9.80
2022-11-14T11:58:46.254Z,10.40
2022-11-14T12:01:53.251Z,14.55
2022-11-14T12:04:56.235Z,12.55
2022-11-14T12:08:21.229Z,10.13
2022-11-14T12:11:25.676Z,17.33
2022-11-14T12:14:56.118Z,12.45
2022-11-14T12:18:12.051Z,12.43
2022-11-14T12:21:29.264Z,14.07
2022-11-14T12:24:53.650Z,16.15
2022-11-14T12:28:24.127Z,20.48
2022-11-14T12:31:33.183Z,14.38
2022-11-14T12:34:49.162Z,14.43
2022-11-14T12:38:02.175Z,14.20
2022-11-14T12:41:04.078Z,17.58
2022-11-14T12:44:43.157Z,16.10
2022-11-14T12:48:26.911Z,25.23
2022-11-14T12:51:40.094Z,18.95
2022-11-14T12:54:57.278Z,16.85
2022-11-14T12:58:19.454Z,27.40
2022-11-14T13:01:33.208Z,20.10
2022-11-14T13:04:58.196Z,23.42
2022-11-14T13:08:31.706Z,19.33
2022-11-14T13:12:20.108Z,20.50
2022-11-14T13:15:56.254Z,21.83
2022-11-14T13:19:32.253Z,21.07
2022-11-14T13:22:41.293Z,25.67
2022-11-14T13:25:48.189Z,23.15
2022-11-14T13:28:50.501Z,24.52
2022-11-14T13:32:01.174Z,26.48
2022-11-14T13:35:13.141Z,25.38
2022-11-14T13:38:41.576Z,21.30
2022-11-14T13:42:18.185Z,27.05
2022-11-14T13:46:01.196Z,23.42
2022-11-14T13:49:24.583Z,21.25
2022-11-14T13:52:32.116Z,21.17
2022-11-14T13:55:56.131Z,19.23
2022-11-14T13:59:29.265Z,20.67
2022-11-14T14:02:35.561Z,20.73
2022-11-14T14:06:05.331Z,17.00
2022-11-14T14:09:12.674Z,26.25
2022-11-14T14:12:27.093Z,29.13
2022-11-14T14:15:46.755Z,39.17
2022-11-14T14:19:25.737Z,44.55
2022-11-14T14:22:26.475Z,46.05
2022-11-14T14:25:59.189Z,53.30
2022-11-14T14:29:14.137Z,49.38
2022-11-14T14:32:29.193Z,55.03
2022-11-14T14:35:40.356Z,50.38
2022-11-14T14:38:49.109Z,39.22
2022-11-14T14:41:58.070Z,46.72
2022-11-14T14:44:58.496Z,38.00
2022-11-14T14:48:15.172Z,38.95
2022-11-14T14:51:22.483Z,29.25
2022-11-14T14:54:32.188Z,27.40
2022-11-14T14:57:33.639Z,31.75
2022-11-14T15:00:41.172Z,23.27
2022-11-14T15:03:46.523Z,26.95
2022-11-14T15:06:55.233Z,30.55
2022-11-14T15:10:09.643Z,20.70
2022-11-14T15:13:23.167Z,27.80
2022-11-14T15:16:24.572Z,23.17
2022-11-14T15:19:35.152Z,23.00
2022-11-14T15:22:36.629Z,24.50
2022-11-14T15:25:45.172Z,31.77
2022-11-14T15:28:45.564Z,23.75
2022-11-14T15:32:12.169Z,25.20
2022-11-14T15:35:37.087Z,25.23
2022-11-14T15:38:46.424Z,21.95
2022-11-14T15:41:54.057Z,21.90
2022-11-14T15:44:56.151Z,24.58
2022-11-14T15:48:14.057Z,29.02
2022-11-14T15:51:14.620Z,24.40
2022-11-14T15:54:39.085Z,23.20
2022-11-14T15:57:52.076Z,22.60
2022-11-14T16:01:07.500Z,23.83
2022-11-14T16:04:23.148Z,24.02
2022-11-14T16:07:34.814Z,29.33
2022-11-14T16:10:43.137Z,21.42
2022-11-14T16:13:51.151Z,26.33
2022-11-14T16:16:51.382Z,25.98
2022-11-14T16:19:59.058Z,24.20
2022-11-14T16:23:07.118Z,25.35
2022-11-14T16:26:07.428Z,28.55
2022-11-14T16:29:14.169Z,28.75
2022-11-14T16:32:24.168Z,28.52
2022-11-14T16:35:26.855Z,28.25
2022-11-14T16:38:34.042Z,31.80
2022-11-14T16:41:34.457Z,33.58
2022-11-14T16:44:45.093Z,35.63
2022-11-14T16:47:49.209Z,42.08
2022-11-14T16:50:57.026Z,41.47
2022-11-14T16:53:58.070Z,48.85
2022-11-14T16:57:05.148Z,53.47
2022-11-14T17:00:09.175Z,43.80
2022-11-14T17:03:16.150Z,52.10
2022-11-14T17:06:17.544Z,42.55
2022-11-14T17:09:28.152Z,45.42
2022-11-14T17:12:29.741Z,42.80
2022-11-14T17:15:39.161Z,41.53
2022-11-14T17:18:53.990Z,40.90
2022-11-14T17:22:02.174Z,38.50
2022-11-14T17:25:09.045Z,43.45
2022-11-14T17:28:16.251Z,40.10
2022-11-14T17:31:18.115Z,40.40
2022-11-14T17:34:26.169Z,39.13
2022-11-14T17:37:26.588Z,40.83
2022-11-14T17:40:34.166Z,49.28
2022-11-14T17:43:38.992Z,43.75
2022-11-14T17:46:48.157Z,47.20
2022-11-14T17:49:48.488Z,42.00
2022-11-14T17:52:55.074Z,46.28
2022-11-14T17:56:03.519Z,35.05
2022-11-14T17:59:04.128Z,36.35
2022-11-14T18:02:11.192Z,37.95
2022-11-14T18:05:12.592Z,37.40
2022-11-14T18:08:20.090Z,28.73
2022-11-14T18:11:23.586Z,27.02
2022-11-14T18:14:30.148Z,26.20
2022-11-14T18:17:30.467Z,22.67
2022-11-14T18:20:37.055Z,22.83
2022-11-14T18:23:39.754Z,25.23
2022-11-14T18:26:47.136Z,26.73
2022-11-14T18:29:47.440Z,25.90
2022-11-14T18:32:55.155Z,26.48
2022-11-14T18:36:16.114Z,31.17
2022-11-14T18:39:23.154Z,31.10
2022-11-14T18:42:24.704Z,37.97
2022-11-14T18:45:31.071Z,35.97
2022-11-14T18:48:39.147Z,39.67
2022-11-14T18:51:50.056Z,39.30
2022-11-14T18:54:57.039Z,44.00
2022-11-14T18:57:58.539Z,47.35
2022-11-14T19:01:05.108Z,43.80
2022-11-14T19:04:16.122Z,43.88
2022-11-14T19:07:24.087Z,46.97
2022-11-14T19:10:31.035Z,37.03
2022-11-14T19:13:34.631Z,46.28
2022-11-14T19:16:43.113Z,43.35
2022-11-14T19:19:50.144Z,41.15
2022-11-14T19:22:57.031Z,42.35
2022-11-14T19:25:57.513Z,39.20
2022-11-14T19:29:05.138Z,40.58
2022-11-14T19:32:06.859Z,44.63
2022-11-14T19:35:20.239Z,35.97
2022-11-14T19:38:28.150Z,35.63
2022-11-14T19:41:38.045Z,33.70
2022-11-14T19:44:45.056Z,35.28
2022-11-14T19:47:46.384Z,30.95
2022-11-14T19:50:54.136Z,36.78
2022-11-14T19:53:55.320Z,39.15
2022-11-14T19:57:02.069Z,35.55
2022-11-14T20:00:09.186Z,34.47
2022-11-14T20:03:09.448Z,48.33
2022-11-14T20:06:25.051Z,36.35
2022-11-14T20:09:26.429Z,45.70
2022-11-14T20:12:33.125Z,42.25
2022-11-14T20:15:33.400Z,41.65
2022-11-14T20:18:40.060Z,50.22
2022-11-14T20:21:42.458Z,55.20
2022-11-14T20:24:49.073Z,55.67
2022-11-14T20:27:57.007Z,56.30
2022-11-14T20:31:10.061Z,49.67
2022-11-14T20:34:17.114Z,46.22
2022-11-14T20:37:17.333Z,38.75
2022-11-14T20:40:25.098Z,35.63
2022-11-14T20:43:27.147Z,33.03
2022-11-14T20:46:35.123Z,26.13
2022-11-14T20:49:43.069Z,26.67
2022-11-14T20:52:50.118Z,28.55
2022-11-14T20:56:02.026Z,25.67
2022-11-14T20:59:10.067Z,26.50
2022-11-14T21:02:21.208Z,28.88
2022-11-14T21:05:21.397Z,29.77
2022-11-14T21:08:28.360Z,26.98
2022-11-14T21:11:28.470Z,31.08
2022-11-14T21:14:35.001Z,25.65
2022-11-14T21:17:36.410Z,30.17
2022-11-14T21:20:43.026Z,32.17
2022-11-14T21:23:44.421Z,26.63
2022-11-14T21:26:52.097Z,27.35
2022-11-14T21:29:52.393Z,27.95
2022-11-14T21:33:02.013Z,25.70
2022-11-14T21:36:30.183Z,28.00
2022-11-14T21:39:29.298Z,31.70
2022-11-14T21:42:37.144Z,27.48
2022-11-14T21:45:45.026Z,23.42
2022-11-14T21:48:55.120Z,33.47
2022-11-14T21:52:02.193Z,27.58
2022-11-14T21:55:02.412Z,31.30
2022-11-14T21:58:08.790Z,32.05
2022-11-14T22:01:16.567Z,37.60
2022-11-14T22:04:23.135Z,39.20
2022-11-14T22:07:23.492Z,39.47
2022-11-14T22:10:31.005Z,40.85
2022-11-14T22:13:32.753Z,41.55
2022-11-14T22:16:40.110Z,50.72
2022-11-14T22:19:40.401Z,55.83
2022-11-14T22:22:48.017Z,54.65
2022-11-14T22:25:56.105Z,49.95
2022-11-14T22:28:56.263Z,50.95
2022-11-14T22:32:04.016Z,54.22
2022-11-14T22:35:04.338Z,51.15
2022-11-14T22:38:11.098Z,47.63
2022-11-14T22:41:32.677Z,48.25
2022-11-14T22:44:40.012Z,44.80
2022-11-14T22:47:40.235Z,45.65
2022-11-14T22:50:47.007Z,44.08
2022-11-14T22:53:59.133Z,50.20
2022-11-14T22:57:05.994Z,55.38
2022-11-14T23:00:13.036Z,52.65
2022-11-14T23:03:19.085Z,45.83
2022-11-14T23:06:27.996Z,47.28
2022-11-14T23:09:30.882Z,45.33
2022-11-14T23:12:37.996Z,45.03
2022-11-14T23:15:38.507Z,45.20
2022-11-14T23:18:46.120Z,42.15
2022-11-14T23:21:59.087Z,53.72
2022-11-14T23:25:06.088Z,51.10
2022-11-14T23:28:13.094Z,66.70
2022-11-14T23:31:14.875Z,68.60
2022-11-14T23:34:22.984Z,87.18
2022-11-14T23:37:24.271Z,84.45
2022-11-14T23:40:31.008Z,80.95
2022-11-14T23:43:31.872Z,71.05
2022-11-14T23:46:39.991Z,66.25
2022-11-14T23:49:47.087Z,54.95
2022-11-14T23:52:47.377Z,54.45
2022-11-14T23:56:05.993Z,47.97
2022-11-14T23:59:06.407Z,48.42
